SWA2284 KSLC-KDEN
Flight info
| Callsign | SWA2284 |
|---|---|
| Flight time | 1h 2m |
| Altitude | 35000 |
| Route | RUGGD3 PERTY KAMPR LONGZ4 |
| Aircraft | B738/M-SDE2E3FGHIRWXY/LB1 |
Departure
| Time | 2026-05-08 03:30 |
|---|---|
| Airport | Salt Lake City International Airport (KSLC) |
Arrival
| Time | 2026-05-08 04:33 |
|---|---|
| Airport | Denver International Airport (KDEN) |
| Time | Latitude | Longitude | Altitude | Speed | Heading |
|---|---|---|---|---|---|
| 2026-05-08 02:57 | 40.78810 | -111.99054 | 4230 ft | 0 kts | 355° |
| 2026-05-08 03:18 | 40.78792 | -111.99052 | 4230 ft | 4 kts | 360° |
| 2026-05-08 03:18 | 40.78765 | -111.99054 | 4231 ft | 4 kts | 13° |
| 2026-05-08 03:18 | 40.78741 | -111.99067 | 4231 ft | 4 kts | 47° |
| 2026-05-08 03:18 | 40.78734 | -111.99083 | 4231 ft | 0 kts | 85° |
| 2026-05-08 03:21 | 40.78735 | -111.99072 | 4231 ft | 3 kts | 85° |
| 2026-05-08 03:21 | 40.78737 | -111.99033 | 4231 ft | 6 kts | 85° |
| 2026-05-08 03:21 | 40.78742 | -111.98970 | 4229 ft | 8 kts | 85° |
| 2026-05-08 03:22 | 40.78748 | -111.98884 | 4230 ft | 11 kts | 85° |
| 2026-05-08 03:22 | 40.78756 | -111.98767 | 4229 ft | 14 kts | 85° |
| 2026-05-08 03:22 | 40.78765 | -111.98629 | 4229 ft | 15 kts | 85° |
| 2026-05-08 03:22 | 40.78775 | -111.98490 | 4232 ft | 15 kts | 85° |
| 2026-05-08 03:23 | 40.78785 | -111.98347 | 4230 ft | 17 kts | 85° |
| 2026-05-08 03:23 | 40.78794 | -111.98193 | 4230 ft | 17 kts | 85° |
| 2026-05-08 03:23 | 40.78804 | -111.98045 | 4232 ft | 16 kts | 84° |
| 2026-05-08 03:23 | 40.78814 | -111.97921 | 4232 ft | 2 kts | 82° |
| 2026-05-08 03:24 | 40.78814 | -111.97918 | 4233 ft | 0 kts | 82° |
| 2026-05-08 03:24 | 40.78814 | -111.97917 | 4233 ft | 0 kts | 82° |
| 2026-05-08 03:24 | 40.78818 | -111.97878 | 4233 ft | 11 kts | 82° |
| 2026-05-08 03:24 | 40.78829 | -111.97755 | 4232 ft | 10 kts | 83° |
| 2026-05-08 03:25 | 40.78802 | -111.97687 | 4230 ft | 10 kts | 167° |
| 2026-05-08 03:25 | 40.78728 | -111.97678 | 4231 ft | 12 kts | 175° |
| 2026-05-08 03:25 | 40.78640 | -111.97667 | 4232 ft | 14 kts | 175° |
| 2026-05-08 03:25 | 40.78524 | -111.97653 | 4228 ft | 20 kts | 175° |
| 2026-05-08 03:26 | 40.78365 | -111.97635 | 4227 ft | 24 kts | 175° |
| 2026-05-08 03:26 | 40.78202 | -111.97617 | 4226 ft | 23 kts | 175° |
| 2026-05-08 03:26 | 40.78046 | -111.97597 | 4225 ft | 22 kts | 175° |
| 2026-05-08 03:26 | 40.77930 | -111.97574 | 4226 ft | 12 kts | 156° |
| 2026-05-08 03:27 | 40.77850 | -111.97530 | 4226 ft | 14 kts | 166° |
| 2026-05-08 03:27 | 40.77737 | -111.97513 | 4229 ft | 18 kts | 175° |
| 2026-05-08 03:27 | 40.77600 | -111.97497 | 4230 ft | 21 kts | 175° |
| 2026-05-08 03:27 | 40.77481 | -111.97482 | 4228 ft | 7 kts | 169° |
| 2026-05-08 03:28 | 40.77466 | -111.97474 | 4228 ft | 0 kts | 148° |
| 2026-05-08 03:28 | 40.77453 | -111.97457 | 4228 ft | 7 kts | 129° |
| 2026-05-08 03:28 | 40.77470 | -111.97366 | 4226 ft | 15 kts | 53° |
| 2026-05-08 03:29 | 40.77580 | -111.97328 | 4227 ft | 23 kts | 355° |
| 2026-05-08 03:29 | 40.77969 | -111.97374 | 4227 ft | 90 kts | 355° |
| 2026-05-08 03:29 | 40.78795 | -111.97470 | 4233 ft | 148 kts | 355° |
| 2026-05-08 03:29 | 40.79952 | -111.97598 | 4529 ft | 173 kts | 355° |
| 2026-05-08 03:30 | 40.82435 | -111.98010 | 5996 ft | 181 kts | 351° |
| 2026-05-08 03:30 | 40.85162 | -111.98572 | 6712 ft | 223 kts | 350° |
| 2026-05-08 03:31 | 40.88529 | -111.99241 | 7122 ft | 265 kts | 351° |
| 2026-05-08 03:31 | 40.92318 | -111.99977 | 8432 ft | 277 kts | 351° |
| 2026-05-08 03:32 | 40.94231 | -112.00345 | 9297 ft | 278 kts | 351° |
| 2026-05-08 03:32 | 40.96149 | -112.00700 | 10172 ft | 278 kts | 350° |
| 2026-05-08 03:32 | 40.98067 | -112.01017 | 11047 ft | 278 kts | 350° |
| 2026-05-08 03:32 | 40.99991 | -112.01279 | 11918 ft | 278 kts | 350° |
| 2026-05-08 03:33 | 41.01920 | -112.01484 | 12793 ft | 279 kts | 351° |
| 2026-05-08 03:33 | 41.03868 | -112.01603 | 13605 ft | 285 kts | 360° |
| 2026-05-08 03:33 | 41.05764 | -112.00684 | 14389 ft | 303 kts | 32° |
| 2026-05-08 03:33 | 41.07106 | -111.98485 | 15235 ft | 317 kts | 63° |
| 2026-05-08 03:34 | 41.07631 | -111.95605 | 16016 ft | 328 kts | 81° |
| 2026-05-08 03:34 | 41.07586 | -111.92561 | 16802 ft | 335 kts | 97° |
| 2026-05-08 03:34 | 41.06898 | -111.89579 | 17549 ft | 342 kts | 109° |
| 2026-05-08 03:34 | 41.05983 | -111.86662 | 18330 ft | 345 kts | 111° |
| 2026-05-08 03:35 | 41.05026 | -111.83781 | 19042 ft | 348 kts | 111° |
| 2026-05-08 03:35 | 41.04048 | -111.80823 | 19710 ft | 353 kts | 111° |
| 2026-05-08 03:35 | 41.03061 | -111.77822 | 20321 ft | 358 kts | 110° |
| 2026-05-08 03:36 | 41.01140 | -111.71878 | 21624 ft | 364 kts | 109° |
| 2026-05-08 03:36 | 41.00146 | -111.68772 | 22223 ft | 368 kts | 109° |
| 2026-05-08 03:36 | 40.99145 | -111.65633 | 22832 ft | 372 kts | 109° |
| 2026-05-08 03:36 | 40.98134 | -111.62463 | 23012 ft | 373 kts | 109° |
| 2026-05-08 03:37 | 40.97127 | -111.59309 | 23030 ft | 371 kts | 109° |
| 2026-05-08 03:37 | 40.96117 | -111.56143 | 23033 ft | 375 kts | 109° |
| 2026-05-08 03:37 | 40.95102 | -111.52963 | 23051 ft | 376 kts | 109° |
| 2026-05-08 03:37 | 40.94095 | -111.49817 | 23046 ft | 379 kts | 109° |
| 2026-05-08 03:38 | 40.93042 | -111.46518 | 23079 ft | 400 kts | 109° |
| 2026-05-08 03:38 | 40.91931 | -111.43047 | 23200 ft | 418 kts | 109° |
| 2026-05-08 03:38 | 40.90895 | -111.39386 | 23310 ft | 431 kts | 102° |
| 2026-05-08 03:38 | 40.90294 | -111.35483 | 23659 ft | 435 kts | 95° |
| 2026-05-08 03:39 | 40.89839 | -111.31516 | 24228 ft | 437 kts | 94° |
| 2026-05-08 03:39 | 40.89403 | -111.27533 | 24801 ft | 439 kts | 94° |
| 2026-05-08 03:39 | 40.88962 | -111.23515 | 25258 ft | 445 kts | 94° |
| 2026-05-08 03:39 | 40.88506 | -111.19453 | 25677 ft | 449 kts | 94° |
| 2026-05-08 03:40 | 40.88033 | -111.15356 | 26180 ft | 452 kts | 94° |
| 2026-05-08 03:40 | 40.87548 | -111.11245 | 26687 ft | 454 kts | 94° |
| 2026-05-08 03:40 | 40.87056 | -111.07134 | 27299 ft | 452 kts | 94° |
| 2026-05-08 03:40 | 40.86561 | -111.03037 | 27916 ft | 451 kts | 93° |
| 2026-05-08 03:41 | 40.86066 | -110.98940 | 28475 ft | 451 kts | 93° |
| 2026-05-08 03:41 | 40.85571 | -110.94857 | 29018 ft | 451 kts | 93° |
| 2026-05-08 03:41 | 40.85074 | -110.90765 | 29514 ft | 452 kts | 92° |
| 2026-05-08 03:41 | 40.84576 | -110.86670 | 30014 ft | 452 kts | 92° |
| 2026-05-08 03:42 | 40.84076 | -110.82572 | 30532 ft | 451 kts | 92° |
| 2026-05-08 03:42 | 40.83575 | -110.78484 | 31070 ft | 450 kts | 92° |
| 2026-05-08 03:42 | 40.83074 | -110.74403 | 31511 ft | 450 kts | 92° |
| 2026-05-08 03:42 | 40.82571 | -110.70324 | 31935 ft | 451 kts | 92° |
| 2026-05-08 03:43 | 40.82067 | -110.66239 | 32348 ft | 451 kts | 92° |
| 2026-05-08 03:43 | 40.81560 | -110.62157 | 32792 ft | 451 kts | 92° |
| 2026-05-08 03:43 | 40.81053 | -110.58073 | 33191 ft | 451 kts | 92° |
| 2026-05-08 03:43 | 40.80545 | -110.53982 | 33576 ft | 452 kts | 92° |
| 2026-05-08 03:44 | 40.80035 | -110.49904 | 34010 ft | 450 kts | 92° |
| 2026-05-08 03:44 | 40.79524 | -110.45831 | 34411 ft | 450 kts | 92° |
| 2026-05-08 03:44 | 40.79013 | -110.41758 | 34789 ft | 450 kts | 92° |
| 2026-05-08 03:44 | 40.78499 | -110.37684 | 35124 ft | 451 kts | 92° |
| 2026-05-08 03:45 | 40.77982 | -110.33567 | 35100 ft | 457 kts | 92° |
| 2026-05-08 03:45 | 40.76932 | -110.25302 | 35102 ft | 454 kts | 92° |
| 2026-05-08 03:46 | 40.75891 | -110.17209 | 35108 ft | 449 kts | 92° |
| 2026-05-08 03:46 | 40.74855 | -110.09078 | 35109 ft | 449 kts | 92° |
| 2026-05-08 03:47 | 40.73920 | -110.00946 | 35108 ft | 446 kts | 88° |
| 2026-05-08 03:47 | 40.73396 | -109.92793 | 35097 ft | 447 kts | 86° |
| 2026-05-08 03:48 | 40.72925 | -109.84618 | 35102 ft | 448 kts | 87° |
| 2026-05-08 03:48 | 40.72403 | -109.76412 | 35097 ft | 450 kts | 88° |
| 2026-05-08 03:49 | 40.71843 | -109.68179 | 35080 ft | 451 kts | 88° |
| 2026-05-08 03:49 | 40.71267 | -109.59912 | 35078 ft | 452 kts | 88° |
| 2026-05-08 03:50 | 40.70693 | -109.51720 | 35074 ft | 451 kts | 88° |
| 2026-05-08 03:50 | 40.70110 | -109.43491 | 35084 ft | 450 kts | 88° |
| 2026-05-08 03:51 | 40.69525 | -109.35285 | 35082 ft | 449 kts | 88° |
| 2026-05-08 03:51 | 40.68936 | -109.27108 | 35065 ft | 447 kts | 89° |
| 2026-05-08 03:52 | 40.68342 | -109.18958 | 35077 ft | 447 kts | 89° |
| 2026-05-08 03:52 | 40.67746 | -109.10820 | 35067 ft | 446 kts | 89° |
| 2026-05-08 03:53 | 40.67148 | -109.02675 | 35076 ft | 446 kts | 89° |
| 2026-05-08 03:53 | 40.66621 | -108.94541 | 35084 ft | 445 kts | 88° |
| 2026-05-08 03:54 | 40.66109 | -108.86403 | 35069 ft | 446 kts | 88° |
| 2026-05-08 03:54 | 40.65588 | -108.78261 | 35093 ft | 447 kts | 89° |
| 2026-05-08 03:55 | 40.65054 | -108.70102 | 35086 ft | 448 kts | 89° |
| 2026-05-08 03:55 | 40.64511 | -108.61931 | 35101 ft | 448 kts | 89° |
| 2026-05-08 03:56 | 40.63961 | -108.53745 | 35094 ft | 449 kts | 89° |
| 2026-05-08 03:56 | 40.63403 | -108.45551 | 35094 ft | 449 kts | 89° |
| 2026-05-08 03:57 | 40.62843 | -108.37411 | 35085 ft | 449 kts | 90° |
| 2026-05-08 03:57 | 40.62272 | -108.29167 | 35096 ft | 449 kts | 90° |
| 2026-05-08 03:58 | 40.61701 | -108.21030 | 35097 ft | 450 kts | 90° |
| 2026-05-08 03:58 | 40.61122 | -108.12850 | 35101 ft | 449 kts | 90° |
| 2026-05-08 03:59 | 40.60536 | -108.04664 | 35088 ft | 449 kts | 90° |
| 2026-05-08 03:59 | 40.59944 | -107.96477 | 35090 ft | 449 kts | 91° |
| 2026-05-08 04:00 | 40.59347 | -107.88292 | 35070 ft | 449 kts | 91° |
| 2026-05-08 04:00 | 40.58744 | -107.80108 | 35075 ft | 449 kts | 91° |
| 2026-05-08 04:01 | 40.58137 | -107.71930 | 35077 ft | 449 kts | 91° |
| 2026-05-08 04:01 | 40.57523 | -107.63759 | 35082 ft | 449 kts | 91° |
| 2026-05-08 04:02 | 40.56909 | -107.55591 | 35079 ft | 449 kts | 91° |
| 2026-05-08 04:02 | 40.56291 | -107.47428 | 35077 ft | 448 kts | 91° |
| 2026-05-08 04:03 | 40.55667 | -107.39275 | 35105 ft | 448 kts | 91° |
| 2026-05-08 04:03 | 40.54723 | -107.27054 | 35120 ft | 447 kts | 91° |
| 2026-05-08 04:04 | 40.54092 | -107.18972 | 35122 ft | 448 kts | 92° |
| 2026-05-08 04:04 | 40.53441 | -107.10679 | 35147 ft | 464 kts | 92° |
| 2026-05-08 04:05 | 40.52761 | -107.02110 | 35146 ft | 479 kts | 92° |
| 2026-05-08 04:05 | 40.52048 | -106.93271 | 35132 ft | 491 kts | 92° |
| 2026-05-08 04:06 | 40.51318 | -106.84303 | 34641 ft | 498 kts | 93° |
| 2026-05-08 04:06 | 40.50946 | -106.79782 | 34052 ft | 496 kts | 93° |
| 2026-05-08 04:06 | 40.50575 | -106.75280 | 33458 ft | 496 kts | 93° |
| 2026-05-08 04:07 | 40.50202 | -106.70795 | 33012 ft | 491 kts | 93° |
| 2026-05-08 04:07 | 40.49833 | -106.66359 | 32546 ft | 487 kts | 93° |
| 2026-05-08 04:07 | 40.49466 | -106.61956 | 32084 ft | 482 kts | 93° |
| 2026-05-08 04:07 | 40.49103 | -106.57595 | 31643 ft | 478 kts | 94° |
| 2026-05-08 04:08 | 40.48740 | -106.53277 | 31195 ft | 474 kts | 94° |
| 2026-05-08 04:08 | 40.48369 | -106.48992 | 30757 ft | 470 kts | 94° |
| 2026-05-08 04:08 | 40.47989 | -106.44751 | 30320 ft | 466 kts | 94° |
| 2026-05-08 04:08 | 40.47736 | -106.41953 | 30032 ft | 464 kts | 95° |
| 2026-05-08 04:09 | 40.47355 | -106.37758 | 29585 ft | 460 kts | 95° |
| 2026-05-08 04:09 | 40.46855 | -106.32248 | 28980 ft | 456 kts | 95° |
| 2026-05-08 04:09 | 40.46482 | -106.28135 | 28526 ft | 452 kts | 95° |
| 2026-05-08 04:09 | 40.46232 | -106.25374 | 28222 ft | 450 kts | 95° |
| 2026-05-08 04:10 | 40.45863 | -106.21312 | 27775 ft | 446 kts | 95° |
| 2026-05-08 04:10 | 40.45499 | -106.17336 | 27344 ft | 443 kts | 95° |
| 2026-05-08 04:10 | 40.45136 | -106.13339 | 26919 ft | 439 kts | 95° |
| 2026-05-08 04:10 | 40.44788 | -106.09378 | 26531 ft | 434 kts | 95° |
| 2026-05-08 04:11 | 40.44449 | -106.05456 | 26140 ft | 430 kts | 95° |
| 2026-05-08 04:11 | 40.44112 | -106.01568 | 25750 ft | 426 kts | 95° |
| 2026-05-08 04:11 | 40.43777 | -105.97719 | 25366 ft | 423 kts | 95° |
| 2026-05-08 04:11 | 40.43442 | -105.93900 | 24983 ft | 420 kts | 95° |
| 2026-05-08 04:12 | 40.43089 | -105.90114 | 24611 ft | 417 kts | 97° |
| 2026-05-08 04:12 | 40.42581 | -105.86375 | 24210 ft | 415 kts | 101° |
| 2026-05-08 04:12 | 40.41974 | -105.82689 | 23863 ft | 412 kts | 102° |
| 2026-05-08 04:12 | 40.41355 | -105.79037 | 23481 ft | 409 kts | 102° |
| 2026-05-08 04:13 | 40.40748 | -105.75409 | 23104 ft | 405 kts | 101° |
| 2026-05-08 04:13 | 40.40160 | -105.71801 | 22740 ft | 403 kts | 101° |
| 2026-05-08 04:13 | 40.39588 | -105.68212 | 22349 ft | 401 kts | 101° |
| 2026-05-08 04:13 | 40.39021 | -105.64637 | 21992 ft | 399 kts | 101° |
| 2026-05-08 04:14 | 40.38455 | -105.61076 | 21597 ft | 397 kts | 101° |
| 2026-05-08 04:14 | 40.37890 | -105.57543 | 21246 ft | 394 kts | 101° |
| 2026-05-08 04:14 | 40.37335 | -105.54075 | 20881 ft | 392 kts | 101° |
| 2026-05-08 04:14 | 40.36768 | -105.50546 | 20526 ft | 390 kts | 101° |
| 2026-05-08 04:15 | 40.36211 | -105.47073 | 20165 ft | 388 kts | 100° |
| 2026-05-08 04:15 | 40.35662 | -105.43660 | 19804 ft | 388 kts | 100° |
| 2026-05-08 04:15 | 40.35105 | -105.40215 | 19444 ft | 384 kts | 100° |
| 2026-05-08 04:15 | 40.34440 | -105.36881 | 19039 ft | 374 kts | 112° |
| 2026-05-08 04:16 | 40.33102 | -105.34022 | 18814 ft | 364 kts | 127° |
| 2026-05-08 04:16 | 40.31564 | -105.31416 | 18531 ft | 360 kts | 129° |
| 2026-05-08 04:16 | 40.30009 | -105.28854 | 18279 ft | 358 kts | 129° |
| 2026-05-08 04:16 | 40.28457 | -105.26303 | 18013 ft | 358 kts | 129° |
| 2026-05-08 04:17 | 40.26918 | -105.23742 | 17741 ft | 356 kts | 128° |
| 2026-05-08 04:17 | 40.25389 | -105.21193 | 17427 ft | 356 kts | 128° |
| 2026-05-08 04:17 | 40.23875 | -105.18633 | 17164 ft | 354 kts | 128° |
| 2026-05-08 04:17 | 40.22365 | -105.16092 | 16903 ft | 354 kts | 128° |
| 2026-05-08 04:18 | 40.20849 | -105.13546 | 16634 ft | 354 kts | 128° |
| 2026-05-08 04:18 | 40.19336 | -105.11004 | 16378 ft | 354 kts | 128° |
| 2026-05-08 04:18 | 40.17820 | -105.08458 | 16108 ft | 354 kts | 128° |
| 2026-05-08 04:18 | 40.16314 | -105.05925 | 15838 ft | 351 kts | 128° |
| 2026-05-08 04:19 | 40.14829 | -105.03420 | 15567 ft | 347 kts | 128° |
| 2026-05-08 04:19 | 40.13299 | -105.01022 | 15311 ft | 341 kts | 135° |
| 2026-05-08 04:19 | 40.11634 | -104.98901 | 15071 ft | 338 kts | 138° |
| 2026-05-08 04:19 | 40.09895 | -104.96779 | 14814 ft | 337 kts | 138° |
| 2026-05-08 04:20 | 40.08221 | -104.94707 | 14575 ft | 335 kts | 137° |
| 2026-05-08 04:20 | 40.06530 | -104.92565 | 14311 ft | 333 kts | 136° |
| 2026-05-08 04:20 | 40.04902 | -104.90478 | 14081 ft | 332 kts | 136° |
| 2026-05-08 04:20 | 40.03262 | -104.88371 | 13817 ft | 330 kts | 137° |
| 2026-05-08 04:21 | 40.01631 | -104.86278 | 13579 ft | 328 kts | 136° |
| 2026-05-08 04:21 | 40.00009 | -104.84189 | 13339 ft | 327 kts | 137° |
| 2026-05-08 04:21 | 39.98376 | -104.82130 | 13099 ft | 325 kts | 142° |
| 2026-05-08 04:21 | 39.96421 | -104.80747 | 12850 ft | 318 kts | 167° |
| 2026-05-08 04:22 | 39.94267 | -104.80405 | 12638 ft | 310 kts | 184° |
| 2026-05-08 04:22 | 39.92121 | -104.80465 | 12407 ft | 308 kts | 186° |
| 2026-05-08 04:22 | 39.89990 | -104.80550 | 12180 ft | 305 kts | 185° |
| 2026-05-08 04:22 | 39.87883 | -104.80630 | 11940 ft | 299 kts | 185° |
| 2026-05-08 04:23 | 39.85840 | -104.80698 | 11707 ft | 288 kts | 185° |
| 2026-05-08 04:23 | 39.83876 | -104.80754 | 11494 ft | 277 kts | 185° |
| 2026-05-08 04:23 | 39.81981 | -104.80806 | 11291 ft | 267 kts | 185° |
| 2026-05-08 04:23 | 39.80163 | -104.80851 | 11095 ft | 257 kts | 185° |
| 2026-05-08 04:24 | 39.78374 | -104.80906 | 10787 ft | 258 kts | 187° |
| 2026-05-08 04:24 | 39.76574 | -104.81063 | 10332 ft | 260 kts | 187° |
| 2026-05-08 04:24 | 39.74764 | -104.81221 | 9879 ft | 262 kts | 187° |
| 2026-05-08 04:24 | 39.72934 | -104.81367 | 9461 ft | 265 kts | 186° |
| 2026-05-08 04:25 | 39.71099 | -104.81492 | 9219 ft | 262 kts | 186° |
| 2026-05-08 04:25 | 39.69313 | -104.81605 | 9049 ft | 258 kts | 186° |
| 2026-05-08 04:25 | 39.67547 | -104.81725 | 8998 ft | 251 kts | 186° |
| 2026-05-08 04:25 | 39.65820 | -104.81848 | 8998 ft | 247 kts | 186° |
| 2026-05-08 04:26 | 39.64107 | -104.81971 | 9011 ft | 245 kts | 186° |
| 2026-05-08 04:26 | 39.62386 | -104.81953 | 8995 ft | 252 kts | 170° |
| 2026-05-08 04:26 | 39.60786 | -104.80962 | 8892 ft | 261 kts | 140° |
| 2026-05-08 04:26 | 39.59754 | -104.79063 | 8820 ft | 259 kts | 110° |
| 2026-05-08 04:27 | 39.59502 | -104.76787 | 8650 ft | 255 kts | 90° |
| 2026-05-08 04:27 | 39.59621 | -104.74524 | 8543 ft | 248 kts | 77° |
| 2026-05-08 04:27 | 39.60387 | -104.72597 | 8463 ft | 238 kts | 44° |
| 2026-05-08 04:27 | 39.61694 | -104.71387 | 8389 ft | 227 kts | 28° |
| 2026-05-08 04:28 | 39.63063 | -104.70398 | 8112 ft | 226 kts | 28° |
| 2026-05-08 04:28 | 39.64440 | -104.69436 | 8033 ft | 224 kts | 26° |
| 2026-05-08 04:28 | 39.65917 | -104.68908 | 7995 ft | 219 kts | 357° |
| 2026-05-08 04:28 | 39.67450 | -104.68976 | 8000 ft | 223 kts | 359° |
| 2026-05-08 04:29 | 39.69013 | -104.68947 | 8009 ft | 225 kts | 360° |
| 2026-05-08 04:29 | 39.70571 | -104.68914 | 7994 ft | 223 kts | 359° |
| 2026-05-08 04:29 | 39.72100 | -104.68887 | 7997 ft | 215 kts | 359° |
| 2026-05-08 04:29 | 39.73593 | -104.68869 | 7843 ft | 216 kts | 359° |
| 2026-05-08 04:30 | 39.75088 | -104.68851 | 7563 ft | 213 kts | 359° |
| 2026-05-08 04:30 | 39.76558 | -104.68834 | 7291 ft | 210 kts | 0° |
| 2026-05-08 04:30 | 39.77976 | -104.68817 | 7026 ft | 202 kts | 1° |
| 2026-05-08 04:30 | 39.79343 | -104.68801 | 6767 ft | 190 kts | 2° |
| 2026-05-08 04:31 | 39.80626 | -104.68787 | 6502 ft | 179 kts | 2° |
| 2026-05-08 04:31 | 39.81846 | -104.68773 | 6276 ft | 174 kts | 2° |
| 2026-05-08 04:31 | 39.83009 | -104.68759 | 6061 ft | 163 kts | 2° |
| 2026-05-08 04:31 | 39.84112 | -104.68747 | 5845 ft | 155 kts | 2° |
| 2026-05-08 04:32 | 39.85183 | -104.68733 | 5646 ft | 154 kts | 2° |
| 2026-05-08 04:32 | 39.86264 | -104.68727 | 5435 ft | 155 kts | 2° |
| 2026-05-08 04:32 | 39.87306 | -104.68709 | 5360 ft | 135 kts | 1° |
| 2026-05-08 04:32 | 39.88056 | -104.68699 | 5361 ft | 60 kts | 0° |
| 2026-05-08 04:33 | 39.88384 | -104.68680 | 5360 ft | 38 kts | 11° |
| 2026-05-08 04:33 | 39.88566 | -104.68589 | 5359 ft | 14 kts | 28° |
| 2026-05-08 04:33 | 39.88607 | -104.68502 | 5358 ft | 13 kts | 125° |
| 2026-05-08 04:33 | 39.88522 | -104.68480 | 5359 ft | 13 kts | 179° |
| 2026-05-08 04:34 | 39.88430 | -104.68480 | 5359 ft | 15 kts | 180° |
| 2026-05-08 04:34 | 39.88313 | -104.68482 | 5360 ft | 19 kts | 181° |
| 2026-05-08 04:34 | 39.88170 | -104.68484 | 5359 ft | 22 kts | 180° |
| 2026-05-08 04:34 | 39.88003 | -104.68485 | 5359 ft | 26 kts | 180° |
| 2026-05-08 04:35 | 39.87821 | -104.68488 | 5359 ft | 26 kts | 180° |
| 2026-05-08 04:35 | 39.87648 | -104.68490 | 5360 ft | 24 kts | 180° |
| 2026-05-08 04:35 | 39.87486 | -104.68492 | 5361 ft | 23 kts | 180° |
| 2026-05-08 04:35 | 39.87330 | -104.68493 | 5360 ft | 22 kts | 180° |
| 2026-05-08 04:36 | 39.87179 | -104.68494 | 5361 ft | 21 kts | 181° |
| 2026-05-08 04:36 | 39.87032 | -104.68497 | 5360 ft | 21 kts | 180° |
| 2026-05-08 04:36 | 39.86889 | -104.68498 | 5361 ft | 20 kts | 180° |
| 2026-05-08 04:36 | 39.86751 | -104.68498 | 5360 ft | 20 kts | 180° |
| 2026-05-08 04:37 | 39.86617 | -104.68501 | 5362 ft | 19 kts | 181° |
| 2026-05-08 04:37 | 39.86499 | -104.68504 | 5361 ft | 12 kts | 181° |
| 2026-05-08 04:37 | 39.86430 | -104.68466 | 5362 ft | 11 kts | 112° |
| 2026-05-08 04:37 | 39.86425 | -104.68364 | 5364 ft | 11 kts | 91° |
| 2026-05-08 04:38 | 39.86424 | -104.68255 | 5366 ft | 15 kts | 91° |
| 2026-05-08 04:38 | 39.86419 | -104.68094 | 5370 ft | 20 kts | 89° |
| 2026-05-08 04:38 | 39.86417 | -104.67914 | 5374 ft | 20 kts | 91° |
| 2026-05-08 04:38 | 39.86416 | -104.67788 | 5376 ft | 9 kts | 91° |
| 2026-05-08 04:39 | 39.86406 | -104.67735 | 5374 ft | 2 kts | 151° |
| 2026-05-08 04:39 | 39.86383 | -104.67735 | 5376 ft | 5 kts | 180° |
| 2026-05-08 04:39 | 39.86360 | -104.67735 | 5376 ft | 2 kts | 180° |